Time,TemperatureF,DewpointF,PressureIn,WindDirection,WindDirectionDegrees,WindSpeedMPH,WindSpeedGustMPH,Humidity,HourlyPrecipIn,Conditions,Clouds,dailyrainin,SolarRadiationWatts/m^2,SoftwareType,DateUTC
2013-03-28 00:00:00,33.1,25.0,28.02,NNW,338,15.0,15.0,72,0.00,,,0.00,0.0,WeatherDisplay:10.37,2013-03-28 04:00:00,
2013-03-28 00:05:00,33.1,25.0,28.02,WNW,292,6.4,6.4,72,0.00,,,0.00,0.0,WeatherDisplay:10.37,2013-03-28 04:05:00,
2013-03-28 00:10:00,33.1,25.0,28.02,WNW,292,6.9,6.9,72,0.00,,,0.00,0.0,WeatherDisplay:10.37,2013-03-28 04:10:00,
2013-03-28 00:15:00,33.1,25.4,28.02,NW,315,8.1,8.1,73,0.00,,,0.00,0.0,WeatherDisplay:10.37,2013-03-28 04:15:00,
2013-03-28 00:20:00,33.1,25.0,28.02,NNW,338,7.4,7.4,72,0.00,,,0.00,0.0,WeatherDisplay:10.37,2013-03-28 04:20:00,
2013-03-28 00:25:00,33.1,25.4,28.02,West,270,5.8,5.8,73,0.00,,,0.00,0.0,WeatherDisplay:10.37,2013-03-28 04:25:00,
2013-03-28 00:30:00,32.9,25.2,28.02,WNW,292,10.4,10.4,73,0.00,,,0.00,0.0,WeatherDisplay:10.37,2013-03-28 04:30:00,
2013-03-28 00:35:00,32.9,25.2,28.05,WNW,292,8.1,8.1,73,0.00,,,0.00,0.0,WeatherDisplay:10.37,2013-03-28 04:35:00,
2013-03-28 00:40:00,32.9,25.2,28.05,NW,315,9.2,9.2,73,0.00,,,0.00,0.0,WeatherDisplay:10.37,2013-03-28 04:40:00,
2013-03-28 00:45:00,32.9,25.5,28.05,NNW,338,8.1,8.1,74,0.00,,,0.00,0.0,WeatherDisplay:10.37,2013-03-28 04:45:00,
2013-03-28 00:50:00,32.7,25.3,28.05,WNW,292,8.1,8.1,74,0.00,,,0.00,0.0,WeatherDisplay:10.37,2013-03-28 04:50:00,
2013-03-28 00:55:00,32.7,25.3,28.05,NW,315,5.8,5.8,74,0.00,,,0.00,0.0,WeatherDisplay:10.37,2013-03-28 04:55:00,
2013-03-28 01:00:00,32.7,25.7,28.05,NW,315,6.9,6.9,75,0.00,,,0.00,0.0,WeatherDisplay:10.37,2013-03-28 05:00:00,
2013-03-28 01:05:00,32.7,25.7,28.05,NNW,338,8.7,8.7,75,0.00,,,0.00,0.0,WeatherDisplay:10.37,2013-03-28 05:05:00,
2013-03-28 01:10:00,32.5,25.8,28.05,WNW,292,6.7,6.7,76,0.00,,,0.00,0.0,WeatherDisplay:10.37,2013-03-28 05:10:00,
2013-03-28 01:15:00,32.5,25.8,28.05,WNW,292,10.4,10.4,76,0.00,,,0.00,0.0,WeatherDisplay:10.37,2013-03-28 05:15:00,
2013-03-28 01:20:00,32.4,25.6,28.05,NNE,22,9.4,9.4,76,0.00,,,0.00,0.0,WeatherDisplay:10.37,2013-03-28 05:20:00,
2013-03-28 01:25:00,32.4,26.0,28.05,WNW,292,5.9,5.9,77,0.00,,,0.00,0.0,WeatherDisplay:10.37,2013-03-28 05:25:00,
2013-03-28 01:30:00,32.2,25.8,28.05,WSW,248,5.8,5.8,77,0.00,,,0.00,0.0,WeatherDisplay:10.37,2013-03-28 05:30:00,
2013-03-28 01:35:00,32.2,25.8,28.05,NNW,338,4.6,4.6,77,0.00,,,0.00,0.0,WeatherDisplay:10.37,2013-03-28 05:35:00,
2013-03-28 01:40:00,32.2,25.8,28.05,NW,315,4.6,4.6,77,0.00,,,0.00,0.0,WeatherDisplay:10.37,2013-03-28 05:40:00,
2013-03-28 01:45:00,32.2,26.1,28.05,NNW,338,5.8,5.8,78,0.00,,,0.00,0.0,WeatherDisplay:10.37,2013-03-28 05:45:00,
2013-03-28 01:50:00,32.0,25.6,28.05,WNW,292,8.1,8.1,77,0.00,,,0.00,0.0,WeatherDisplay:10.37,2013-03-28 05:50:00,
2013-03-28 01:55:00,32.0,25.9,28.05,West,270,5.4,5.4,78,0.00,,,0.00,0.0,WeatherDisplay:10.37,2013-03-28 05:55:00,
2013-03-28 02:00:00,32.0,25.9,28.05,NW,315,4.6,4.6,78,0.00,,,0.00,0.0,WeatherDisplay:10.37,2013-03-28 06:00:00,
2013-03-28 02:05:00,32.0,25.9,28.05,WNW,292,2.6,2.6,78,0.00,,,0.00,0.0,WeatherDisplay:10.37,2013-03-28 06:05:00,
2013-03-28 02:10:00,31.8,26.0,28.05,WNW,292,5.8,5.8,79,0.00,,,0.00,0.0,WeatherDisplay:10.37,2013-03-28 06:10:00,
2013-03-28 02:16:00,31.8,25.7,28.05,WNW,292,2.4,2.4,78,0.00,,,0.00,0.0,WeatherDisplay:10.37,2013-03-28 06:16:00,
2013-03-28 02:21:00,31.8,26.0,28.05,WNW,292,5.8,5.8,79,0.00,,,0.00,0.0,WeatherDisplay:10.37,2013-03-28 06:21:00,
2013-03-28 02:26:00,31.8,26.0,28.05,WNW,292,6.9,6.9,79,0.00,,,0.00,0.0,WeatherDisplay:10.37,2013-03-28 06:26:00,
2013-03-28 02:31:00,31.8,26.0,28.02,WNW,292,5.4,5.4,79,0.00,,,0.00,0.0,WeatherDisplay:10.37,2013-03-28 06:31:00,
2013-03-28 02:36:00,31.8,26.4,28.02,WSW,248,5.8,5.8,80,0.00,,,0.00,0.0,WeatherDisplay:10.37,2013-03-28 06:36:00,
2013-03-28 02:41:00,31.8,26.4,28.02,NNW,338,3.5,3.5,80,0.00,,,0.00,0.0,WeatherDisplay:10.37,2013-03-28 06:41:00,
2013-03-28 02:46:00,31.8,26.7,28.05,WNW,292,3.5,3.5,81,0.00,,,0.00,0.0,WeatherDisplay:10.37,2013-03-28 06:46:00,
2013-03-28 02:51:00,31.6,26.5,28.05,WNW,292,4.6,4.6,81,0.00,,,0.00,0.0,WeatherDisplay:10.37,2013-03-28 06:51:00,
2013-03-28 02:56:00,31.6,26.5,28.05,NNW,338,4.6,4.6,81,0.00,,,0.00,0.0,WeatherDisplay:10.37,2013-03-28 06:56:00,
2013-03-28 03:01:00,31.6,26.8,28.05,NNW,338,4.9,4.9,82,0.00,,,0.00,0.0,WeatherDisplay:10.37,2013-03-28 07:01:00,
2013-03-28 03:06:00,31.6,26.8,28.05,NNW,338,5.8,5.8,82,0.00,,,0.00,0.0,WeatherDisplay:10.37,2013-03-28 07:06:00,
2013-03-28 03:11:00,31.6,27.1,28.05,WNW,292,5.6,5.6,83,0.00,,,0.00,0.0,WeatherDisplay:10.37,2013-03-28 07:11:00,
2013-03-28 03:16:00,31.6,27.1,28.05,WNW,292,6.9,6.9,83,0.00,,,0.00,0.0,WeatherDisplay:10.37,2013-03-28 07:16:00,
2013-03-28 03:21:00,31.6,27.4,28.05,WNW,292,8.7,8.7,84,0.00,,,0.00,0.0,WeatherDisplay:10.37,2013-03-28 07:21:00,
2013-03-28 03:27:00,31.6,27.6,28.05,West,270,6.2,6.2,85,0.00,,,0.00,0.0,WeatherDisplay:10.37,2013-03-28 07:27:00,
2013-03-28 03:32:00,31.6,27.6,28.02,WSW,248,4.6,4.6,85,0.00,,,0.00,0.0,WeatherDisplay:10.37,2013-03-28 07:32:00,
2013-03-28 03:37:00,31.6,27.9,28.02,NNW,338,4.7,4.7,86,0.00,,,0.00,0.0,WeatherDisplay:10.37,2013-03-28 07:37:00,
2013-03-28 03:42:00,31.6,27.9,28.02,NW,315,6.9,6.9,86,0.00,,,0.00,0.0,WeatherDisplay:10.37,2013-03-28 07:42:00,
2013-03-28 03:47:00,31.6,27.9,28.02,WNW,292,4.0,4.0,86,0.00,,,0.00,0.0,WeatherDisplay:10.37,2013-03-28 07:47:00,
2013-03-28 03:52:00,31.6,28.2,28.02,WNW,292,6.9,6.9,87,0.00,,,0.00,0.0,WeatherDisplay:10.37,2013-03-28 07:52:00,
2013-03-28 03:57:00,31.6,28.2,28.02,WNW,292,5.8,5.8,87,0.00,,,0.00,0.0,WeatherDisplay:10.37,2013-03-28 07:57:00,
2013-03-28 04:02:00,31.6,28.2,28.02,WNW,292,8.1,8.1,87,0.00,,,0.00,0.0,WeatherDisplay:10.37,2013-03-28 08:02:00,
2013-03-28 04:07:00,31.6,28.5,28.02,WNW,292,8.7,8.7,88,0.00,,,0.00,0.0,WeatherDisplay:10.37,2013-03-28 08:07:00,
2013-03-28 04:12:00,31.5,28.3,28.02,NW,315,9.2,9.2,88,0.00,,,0.00,0.0,WeatherDisplay:10.37,2013-03-28 08:12:00,
2013-03-28 04:17:00,31.5,28.6,28.05,NNW,338,5.9,5.9,89,0.00,,,0.00,0.0,WeatherDisplay:10.37,2013-03-28 08:17:00,
2013-03-28 04:22:00,31.5,28.6,28.05,WNW,292,5.8,5.8,89,0.00,,,0.00,0.0,WeatherDisplay:10.37,2013-03-28 08:22:00,
2013-03-28 04:27:00,31.3,28.7,28.05,WNW,292,6.9,6.9,90,0.00,,,0.00,0.0,WeatherDisplay:10.37,2013-03-28 08:27:00,
2013-03-28 04:32:00,31.3,28.7,28.05,WNW,292,4.6,4.6,90,0.00,,,0.00,0.0,WeatherDisplay:10.37,2013-03-28 08:32:00,
2013-03-28 04:37:00,31.3,28.7,28.05,WNW,292,4.9,4.9,90,0.00,,,0.00,0.0,WeatherDisplay:10.37,2013-03-28 08:37:00,
2013-03-28 04:42:00,31.1,28.5,28.05,WNW,292,5.8,5.8,90,0.00,,,0.00,0.0,WeatherDisplay:10.37,2013-03-28 08:42:00,
2013-03-28 04:47:00,31.1,28.5,28.02,West,270,3.5,3.5,90,0.00,,,0.00,0.0,WeatherDisplay:10.37,2013-03-28 08:47:00,
2013-03-28 04:52:00,31.1,28.5,28.02,WNW,292,5.8,5.8,90,0.00,,,0.00,0.0,WeatherDisplay:10.37,2013-03-28 08:52:00,
2013-03-28 04:57:00,30.9,28.3,28.02,NNW,338,3.3,3.3,90,0.00,,,0.00,0.0,WeatherDisplay:10.37,2013-03-28 08:57:00,
2013-03-28 05:02:00,30.9,28.3,28.05,WNW,292,5.8,5.8,90,0.00,,,0.00,0.0,WeatherDisplay:10.37,2013-03-28 09:02:00,
2013-03-28 05:07:00,30.9,28.3,28.05,NW,315,2.9,2.9,90,0.00,,,0.00,0.0,WeatherDisplay:10.37,2013-03-28 09:07:00,
2013-03-28 05:12:00,30.9,28.3,28.05,NNW,338,3.5,3.5,90,0.00,,,0.00,0.0,WeatherDisplay:10.37,2013-03-28 09:12:00,
2013-03-28 05:17:00,31.1,28.5,28.05,WSW,248,5.8,5.8,90,0.00,,,0.00,0.0,WeatherDisplay:10.37,2013-03-28 09:17:00,
2013-03-28 05:22:00,31.1,28.5,28.05,NNW,338,4.6,4.6,90,0.00,,,0.00,0.0,WeatherDisplay:10.37,2013-03-28 09:22:00,
2013-03-28 05:27:00,31.1,28.5,28.05,WSW,248,6.9,6.9,90,0.00,,,0.00,0.0,WeatherDisplay:10.37,2013-03-28 09:27:00,
2013-03-28 05:32:00,31.1,28.5,28.05,NW,315,6.2,6.2,90,0.00,,,0.00,0.0,WeatherDisplay:10.37,2013-03-28 09:32:00,
2013-03-28 05:37:00,31.1,28.5,28.05,NNW,338,4.6,4.6,90,0.00,,,0.00,0.0,WeatherDisplay:10.37,2013-03-28 09:37:00,
2013-03-28 05:42:00,31.1,28.5,28.05,NNW,338,4.6,4.6,90,0.00,,,0.00,0.0,WeatherDisplay:10.37,2013-03-28 09:42:00,
2013-03-28 05:47:00,31.1,28.5,28.05,West,270,5.8,5.8,90,0.00,,,0.00,0.0,WeatherDisplay:10.37,2013-03-28 09:47:00,
2013-03-28 05:52:00,31.1,28.5,28.05,NW,315,6.9,6.9,90,0.00,,,0.00,0.0,WeatherDisplay:10.37,2013-03-28 09:52:00,
2013-03-28 05:57:00,31.1,28.5,28.05,NNW,338,5.8,5.9,90,0.00,,,0.00,0.0,WeatherDisplay:10.37,2013-03-28 09:57:00,
2013-03-28 06:02:00,31.1,28.2,28.05,WNW,292,6.9,6.9,89,0.00,,,0.00,0.0,WeatherDisplay:10.37,2013-03-28 10:02:00,
2013-03-28 06:07:00,31.1,28.2,28.05,WNW,292,4.6,4.6,89,0.00,,,0.00,0.0,WeatherDisplay:10.37,2013-03-28 10:07:00,
2013-03-28 06:13:00,31.1,28.2,28.05,WNW,292,4.6,4.6,89,0.00,,,0.00,0.0,WeatherDisplay:10.37,2013-03-28 10:13:00,
2013-03-28 06:18:00,31.1,28.2,28.05,NW,315,5.8,5.8,89,0.00,,,0.00,0.0,WeatherDisplay:10.37,2013-03-28 10:18:00,
2013-03-28 06:23:00,31.1,28.2,28.05,NNE,22,3.6,0.0,89,0.00,,,0.00,0.0,WeatherDisplay:10.37,2013-03-28 10:23:00,
2013-03-28 06:28:00,31.1,28.2,28.05,NNW,338,5.8,5.8,89,0.00,,,0.00,0.0,WeatherDisplay:10.37,2013-03-28 10:28:00,
2013-03-28 06:33:00,31.1,28.2,28.08,NNW,338,4.6,4.6,89,0.00,,,0.00,0.0,WeatherDisplay:10.37,2013-03-28 10:33:00,
2013-03-28 06:38:00,31.1,28.2,28.08,West,270,9.2,9.2,89,0.00,,,0.00,0.0,WeatherDisplay:10.37,2013-03-28 10:38:00,
2013-03-28 06:43:00,30.9,28.1,28.08,NNW,338,4.6,4.6,89,0.00,,,0.00,0.0,WeatherDisplay:10.37,2013-03-28 10:43:00,
2013-03-28 06:48:00,30.9,28.1,28.08,NNW,338,5.8,5.8,89,0.00,,,0.00,0.0,WeatherDisplay:10.37,2013-03-28 10:48:00,
2013-03-28 06:53:00,30.9,27.8,28.08,NNW,338,8.7,8.7,88,0.00,,,0.00,0.0,WeatherDisplay:10.37,2013-03-28 10:53:00,
2013-03-28 06:58:00,30.9,27.8,28.08,WNW,292,4.6,4.6,88,0.00,,,0.00,0.0,WeatherDisplay:10.37,2013-03-28 10:58:00,
2013-03-28 07:03:00,30.9,27.8,28.08,NNW,338,4.7,4.7,88,0.00,,,0.00,0.0,WeatherDisplay:10.37,2013-03-28 11:03:00,
2013-03-28 07:08:00,30.9,27.8,28.08,NNW,338,4.6,4.6,88,0.00,,,0.00,0.0,WeatherDisplay:10.37,2013-03-28 11:08:00,
2013-03-28 07:13:00,30.9,27.8,28.08,NW,315,4.6,4.6,88,0.00,,,0.00,0.0,WeatherDisplay:10.37,2013-03-28 11:13:00,
2013-03-28 07:18:00,30.9,28.1,28.08,NNW,338,4.6,4.6,89,0.00,,,0.00,0.0,WeatherDisplay:10.37,2013-03-28 11:18:00,
2013-03-28 07:23:00,30.9,28.1,28.08,NNW,338,6.9,6.9,89,0.00,,,0.00,0.0,WeatherDisplay:10.37,2013-03-28 11:23:00,
2013-03-28 07:28:00,30.7,27.9,28.08,NNW,338,4.6,4.6,89,0.00,,,0.00,0.0,WeatherDisplay:10.37,2013-03-28 11:28:00,
2013-03-28 07:33:00,30.7,28.2,28.08,WNW,292,5.4,5.4,90,0.00,,,0.00,0.0,WeatherDisplay:10.37,2013-03-28 11:33:00,
2013-03-28 07:38:00,30.7,28.2,28.08,WNW,292,5.8,5.8,90,0.00,,,0.00,0.0,WeatherDisplay:10.37,2013-03-28 11:38:00,
2013-03-28 07:43:00,30.7,28.4,28.08,WNW,292,5.8,5.8,91,0.00,,,0.00,0.0,WeatherDisplay:10.37,2013-03-28 11:43:00,
2013-03-28 07:48:00,30.9,28.6,28.05,NNW,338,4.6,4.6,91,0.00,,,0.00,0.0,WeatherDisplay:10.37,2013-03-28 11:48:00,
2013-03-28 07:53:00,30.9,28.6,28.05,WNW,292,5.8,5.8,91,0.00,,,0.00,0.0,WeatherDisplay:10.37,2013-03-28 11:53:00,
2013-03-28 07:58:00,31.1,28.8,28.05,NNW,338,4.6,4.6,91,0.00,,,0.00,0.0,WeatherDisplay:10.37,2013-03-28 11:58:00,
2013-03-28 08:03:00,31.1,28.8,28.08,NW,315,6.9,6.9,91,0.00,,,0.00,0.0,WeatherDisplay:10.37,2013-03-28 12:03:00,
2013-03-28 08:08:00,31.3,29.0,28.08,NNW,338,5.8,5.8,91,0.00,,,0.00,0.0,WeatherDisplay:10.37,2013-03-28 12:08:00,
2013-03-28 08:13:00,31.5,29.1,28.08,WNW,292,6.9,6.9,91,0.00,,,0.00,0.0,WeatherDisplay:10.37,2013-03-28 12:13:00,
2013-03-28 08:18:00,31.5,28.9,28.08,NW,315,6.0,6.0,90,0.00,,,0.00,0.0,WeatherDisplay:10.37,2013-03-28 12:18:00,
2013-03-28 08:23:00,31.5,28.9,28.08,WNW,292,4.6,4.6,90,0.00,,,0.00,0.0,WeatherDisplay:10.37,2013-03-28 12:23:00,
2013-03-28 08:28:00,31.5,28.9,28.08,WNW,292,8.1,8.1,90,0.00,,,0.00,0.0,WeatherDisplay:10.37,2013-03-28 12:28:00,
2013-03-28 08:33:00,31.6,28.8,28.08,WNW,292,5.8,5.8,89,0.00,,,0.00,0.0,WeatherDisplay:10.37,2013-03-28 12:33:00,
2013-03-28 08:38:00,31.8,28.9,28.08,NE,45,5.8,5.8,89,0.00,,,0.00,0.0,WeatherDisplay:10.37,2013-03-28 12:38:00,
2013-03-28 08:43:00,32.2,29.3,28.08,NNW,338,6.9,6.9,89,0.00,,,0.00,0.0,WeatherDisplay:10.37,2013-03-28 12:43:00,
2013-03-28 08:48:00,32.2,29.0,28.08,NNW,338,5.8,5.8,88,0.00,,,0.00,0.0,WeatherDisplay:10.37,2013-03-28 12:48:00,
2013-03-28 08:53:00,32.4,29.2,28.08,NNW,338,6.0,6.0,88,0.00,,,0.00,0.0,WeatherDisplay:10.37,2013-03-28 12:53:00,
2013-03-28 08:58:00,32.5,29.4,28.08,WNW,292,4.6,4.6,88,0.00,,,0.00,0.0,WeatherDisplay:10.37,2013-03-28 12:58:00,
2013-03-28 09:03:00,32.5,29.4,28.05,NW,315,5.8,5.8,88,0.00,,,0.00,0.0,WeatherDisplay:10.37,2013-03-28 13:03:00,
2013-03-28 09:08:00,33.1,29.9,28.05,WNW,292,4.6,4.6,88,0.00,,,0.00,0.0,WeatherDisplay:10.37,2013-03-28 13:08:00,
2013-03-28 09:13:00,32.7,29.3,28.05,WNW,292,5.9,5.9,87,0.00,,,0.00,0.0,WeatherDisplay:10.37,2013-03-28 13:13:00,
2013-03-28 09:18:00,33.1,29.6,28.05,WNW,292,3.1,3.1,87,0.00,,,0.00,0.0,WeatherDisplay:10.37,2013-03-28 13:18:00,
2013-03-28 09:23:00,33.3,29.8,28.05,NNW,338,5.8,5.8,87,0.00,,,0.00,100.0,WeatherDisplay:10.37,2013-03-28 13:23:00,
2013-03-28 09:28:00,33.4,30.0,28.05,NNW,338,5.8,5.8,87,0.00,,,0.00,0.0,WeatherDisplay:10.37,2013-03-28 13:28:00,
2013-03-28 09:33:00,33.6,30.2,28.08,NNW,338,5.8,5.8,87,0.00,,,0.00,0.0,WeatherDisplay:10.37,2013-03-28 13:33:00,
2013-03-28 09:38:00,33.6,29.9,28.08,NW,315,3.5,3.5,86,0.00,,,0.00,0.0,WeatherDisplay:10.37,2013-03-28 13:38:00,
2013-03-28 09:43:00,33.6,29.6,28.08,WNW,292,2.3,2.3,85,0.00,,,0.00,0.0,WeatherDisplay:10.37,2013-03-28 13:43:00,
2013-03-28 09:48:00,33.6,29.3,28.08,NW,315,3.8,3.8,84,0.00,,,0.00,0.0,WeatherDisplay:10.37,2013-03-28 13:48:00,
2013-03-28 09:53:00,34.0,29.7,28.08,NNW,338,4.6,4.6,84,0.00,,,0.00,100.0,WeatherDisplay:10.37,2013-03-28 13:53:00,
2013-03-28 09:58:00,34.3,29.7,28.08,WNW,292,5.8,5.8,83,0.00,,,0.00,100.0,WeatherDisplay:10.37,2013-03-28 13:58:00,
2013-03-28 10:03:00,33.8,29.2,28.08,NW,315,7.4,7.4,83,0.00,,,0.00,0.0,WeatherDisplay:10.37,2013-03-28 14:03:00,
2013-03-28 10:08:00,33.6,29.0,28.08,NNW,338,6.0,6.0,83,0.00,,,0.00,0.0,WeatherDisplay:10.37,2013-03-28 14:08:00,
2013-03-28 10:13:00,33.6,29.3,28.08,WNW,292,5.8,5.8,84,0.00,,,0.00,0.0,WeatherDisplay:10.37,2013-03-28 14:13:00,
2013-03-28 10:19:00,33.6,29.6,28.08,NW,315,6.0,6.0,85,0.00,,,0.00,0.0,WeatherDisplay:10.37,2013-03-28 14:19:00,
2013-03-28 10:24:00,33.8,29.8,28.08,WNW,292,8.1,8.1,85,0.00,,,0.00,0.0,WeatherDisplay:10.37,2013-03-28 14:24:00,
2013-03-28 10:29:00,34.2,30.4,28.08,NW,315,6.0,6.0,86,0.00,,,0.00,100.0,WeatherDisplay:10.37,2013-03-28 14:29:00,
2013-03-28 10:34:00,34.5,30.8,28.05,West,270,5.9,5.9,86,0.00,,,0.00,100.0,WeatherDisplay:10.37,2013-03-28 14:34:00,
2013-03-28 10:39:00,34.5,30.2,28.05,WNW,292,5.8,5.8,84,0.00,,,0.00,100.0,WeatherDisplay:10.37,2013-03-28 14:39:00,
2013-03-28 10:44:00,35.4,31.1,28.05,WNW,292,3.5,3.5,84,0.00,,,0.00,100.0,WeatherDisplay:10.37,2013-03-28 14:44:00,
2013-03-28 10:49:00,35.4,30.5,28.08,WNW,292,6.9,6.9,82,0.00,,,0.00,100.0,WeatherDisplay:10.37,2013-03-28 14:49:00,
2013-03-28 10:54:00,35.8,30.5,28.08,NW,315,4.0,4.0,81,0.00,,,0.00,100.0,WeatherDisplay:10.37,2013-03-28 14:54:00,
2013-03-28 10:59:00,35.4,29.9,28.08,NW,315,8.1,8.1,80,0.00,,,0.00,100.0,WeatherDisplay:10.37,2013-03-28 14:59:00,
2013-03-28 11:04:00,35.2,29.4,28.08,WNW,292,5.8,5.8,79,0.00,,,0.00,100.0,WeatherDisplay:10.37,2013-03-28 15:04:00,
2013-03-28 11:09:00,35.2,29.4,28.08,NW,315,8.1,8.1,79,0.00,,,0.00,100.0,WeatherDisplay:10.37,2013-03-28 15:09:00,
2013-03-28 11:14:00,35.2,29.4,28.08,NNW,338,5.8,5.8,79,0.00,,,0.00,0.0,WeatherDisplay:10.37,2013-03-28 15:14:00,
2013-03-28 11:19:00,35.4,29.9,28.08,WNW,292,5.8,5.8,80,0.00,,,0.00,100.0,WeatherDisplay:10.37,2013-03-28 15:19:00,
2013-03-28 11:24:00,35.4,29.9,28.08,WNW,292,5.8,5.8,80,0.00,,,0.00,0.0,WeatherDisplay:10.37,2013-03-28 15:24:00,
2013-03-28 11:29:00,35.6,29.7,28.08,NW,315,7.4,7.4,79,0.00,,,0.00,100.0,WeatherDisplay:10.37,2013-03-28 15:29:00,
2013-03-28 11:34:00,35.8,29.9,28.08,WNW,292,8.1,8.1,79,0.00,,,0.00,100.0,WeatherDisplay:10.37,2013-03-28 15:34:00,
2013-03-28 11:39:00,35.6,29.1,28.08,WNW,292,6.9,6.9,77,0.00,,,0.00,100.0,WeatherDisplay:10.37,2013-03-28 15:39:00,
2013-03-28 11:44:00,35.8,29.3,28.08,NNW,338,6.2,6.2,77,0.00,,,0.00,100.0,WeatherDisplay:10.37,2013-03-28 15:44:00,
2013-03-28 11:49:00,35.6,29.1,28.08,NNW,338,5.8,5.8,77,0.00,CLR,,0.00,100.0,WeatherDisplay:10.37,2013-03-28 15:49:00,
2013-03-28 11:54:00,35.4,28.9,28.08,NNW,338,6.9,6.9,77,0.00,CLR,,0.00,100.0,WeatherDisplay:10.37,2013-03-28 15:54:00,
2013-03-28 11:59:00,35.2,29.1,28.08,NW,315,5.8,5.8,78,0.00,CLR,,0.00,100.0,WeatherDisplay:10.37,2013-03-28 15:59:00,
2013-03-28 12:04:00,35.4,29.6,28.05,WNW,292,5.4,5.4,79,0.00,CLR,,0.00,100.0,WeatherDisplay:10.37,2013-03-28 16:04:00,
2013-03-28 12:09:00,35.4,30.2,28.05,NW,315,6.4,6.4,81,0.00,CLR,,0.00,100.0,WeatherDisplay:10.37,2013-03-28 16:09:00,
2013-03-28 12:14:00,35.6,30.3,28.05,NNW,338,6.9,6.9,81,0.00,CLR,,0.00,100.0,WeatherDisplay:10.37,2013-03-28 16:14:00,
2013-03-28 12:19:00,36.1,30.9,28.08,NW,315,5.8,5.8,81,0.00,CLR,,0.00,100.0,WeatherDisplay:10.37,2013-03-28 16:19:00,
2013-03-28 12:24:00,36.1,30.9,28.08,WNW,292,5.8,5.8,81,0.00,CLR,,0.00,100.0,WeatherDisplay:10.37,2013-03-28 16:24:00,
2013-03-28 12:29:00,36.1,29.9,28.08,WNW,292,8.1,8.1,78,0.00,CLR,,0.00,200.0,WeatherDisplay:10.37,2013-03-28 16:29:00,
2013-03-28 12:34:00,36.7,30.5,28.08,North,0,4.6,4.6,78,0.00,CLR,,0.00,100.0,WeatherDisplay:10.37,2013-03-28 16:34:00,
2013-03-28 12:39:00,36.7,30.1,28.08,NNW,338,6.9,6.9,77,0.00,CLR,,0.00,100.0,WeatherDisplay:10.37,2013-03-28 16:39:00,
2013-03-28 12:44:00,36.5,29.7,28.08,NNW,338,10.4,10.4,76,0.00,FEW,,0.00,100.0,WeatherDisplay:10.37,2013-03-28 16:44:00,
2013-03-28 12:49:00,36.3,29.2,28.08,NW,315,5.8,5.8,75,0.00,CLR,,0.00,300.0,WeatherDisplay:10.37,2013-03-28 16:49:00,
2013-03-28 12:54:00,37.4,29.9,28.08,WNW,292,8.1,8.1,74,0.00,CLR,,0.00,200.0,WeatherDisplay:10.37,2013-03-28 16:54:00,
2013-03-28 12:59:00,37.6,29.4,28.08,WNW,292,8.1,8.1,72,0.00,CLR,,0.00,200.0,WeatherDisplay:10.37,2013-03-28 16:59:00,
2013-03-28 13:04:00,37.9,29.4,28.08,NNW,338,8.1,8.1,71,0.00,CLR,,0.00,200.0,WeatherDisplay:10.37,2013-03-28 17:04:00,
2013-03-28 13:09:00,37.8,28.5,28.08,NW,315,10.4,10.4,69,0.00,CLR,,0.00,300.0,WeatherDisplay:10.37,2013-03-28 17:09:00,
2013-03-28 13:14:00,38.5,29.2,28.08,NNE,22,6.9,6.9,69,0.00,CLR,,0.00,200.0,WeatherDisplay:10.37,2013-03-28 17:14:00,
2013-03-28 13:19:00,38.1,28.5,28.08,NNW,338,8.1,8.1,68,0.00,CLR,,0.00,100.0,WeatherDisplay:10.37,2013-03-28 17:19:00,
2013-03-28 13:24:00,37.9,29.0,28.08,NW,315,5.8,5.8,70,0.00,FEW,,0.00,100.0,WeatherDisplay:10.37,2013-03-28 17:24:00,
2013-03-28 13:29:00,37.8,28.5,28.08,NNW,338,6.9,6.9,69,0.00,BKN,,0.00,100.0,WeatherDisplay:10.37,2013-03-28 17:29:00,
2013-03-28 13:34:00,37.6,29.0,28.05,WNW,292,5.8,5.8,71,0.00,,,0.00,0.0,WeatherDisplay:10.37,2013-03-28 17:34:00,
2013-03-28 13:39:00,37.8,29.2,28.05,NNW,338,4.6,4.6,71,0.00,,,0.00,0.0,WeatherDisplay:10.37,2013-03-28 17:39:00,
2013-03-28 13:44:00,37.9,29.4,28.05,NNW,338,8.1,8.1,71,0.00,,,0.00,0.0,WeatherDisplay:10.37,2013-03-28 17:44:00,
2013-03-28 13:49:00,37.6,29.0,28.08,NNW,338,6.9,6.9,71,0.00,BKN,,0.00,100.0,WeatherDisplay:10.37,2013-03-28 17:49:00,
2013-03-28 13:54:00,38.1,29.2,28.08,WSW,248,6.2,6.2,70,0.00,BKN,,0.00,100.0,WeatherDisplay:10.37,2013-03-28 17:54:00,
2013-03-28 13:59:00,37.9,28.7,28.08,NW,315,8.1,8.1,69,0.00,BKN,,0.00,0.0,WeatherDisplay:10.37,2013-03-28 17:59:00,
2013-03-28 14:04:00,37.9,28.3,28.08,NNW,338,5.8,5.8,68,0.00,BKN,,0.00,100.0,WeatherDisplay:10.37,2013-03-28 18:04:00,
2013-03-28 14:09:00,37.8,27.8,28.08,WNW,292,9.2,9.2,67,0.00,,,0.00,0.0,WeatherDisplay:10.37,2013-03-28 18:09:00,
2013-03-28 14:14:00,37.4,27.8,28.08,NNW,338,8.1,8.1,68,0.00,,,0.00,0.0,WeatherDisplay:10.37,2013-03-28 18:14:00,
2013-03-28 14:19:00,37.4,28.2,28.08,WNW,292,8.1,8.1,69,0.00,,,0.00,0.0,WeatherDisplay:10.37,2013-03-28 18:19:00,
2013-03-28 14:24:00,37.4,28.2,28.08,WNW,292,8.1,8.1,69,0.00,BKN,,0.00,100.0,WeatherDisplay:10.37,2013-03-28 18:24:00,
2013-03-28 14:29:00,37.4,28.2,28.08,NNW,338,10.4,10.4,69,0.00,,,0.00,0.0,WeatherDisplay:10.37,2013-03-28 18:29:00,
2013-03-28 14:34:00,37.8,28.5,28.08,NW,315,8.1,8.1,69,0.00,BKN,,0.00,100.0,WeatherDisplay:10.37,2013-03-28 18:34:00,
2013-03-28 14:39:00,37.6,28.0,28.08,WNW,292,9.2,9.2,68,0.00,,,0.00,0.0,WeatherDisplay:10.37,2013-03-28 18:39:00,
2013-03-28 14:44:00,37.6,28.3,28.08,NNW,338,6.9,6.9,69,0.00,BKN,,0.00,100.0,WeatherDisplay:10.37,2013-03-28 18:44:00,
2013-03-28 14:49:00,38.1,28.8,28.08,NNW,338,6.4,6.4,69,0.00,BKN,,0.00,100.0,WeatherDisplay:10.37,2013-03-28 18:49:00,
2013-03-28 14:54:00,37.9,28.7,28.08,West,270,5.8,5.8,69,0.00,,,0.00,0.0,WeatherDisplay:10.37,2013-03-28 18:54:00,
2013-03-28 14:59:00,37.6,28.0,28.08,NW,315,8.1,8.1,68,0.00,,,0.00,0.0,WeatherDisplay:10.37,2013-03-28 18:59:00,
2013-03-28 15:04:00,37.9,28.7,28.08,WNW,292,5.6,5.6,69,0.00,,,0.00,0.0,WeatherDisplay:10.37,2013-03-28 19:04:00,
2013-03-28 15:09:00,38.1,28.5,28.08,West,270,5.8,5.8,68,0.00,,,0.00,100.0,WeatherDisplay:10.37,2013-03-28 19:09:00,
2013-03-28 15:14:00,38.3,28.7,28.08,WNW,292,5.8,5.8,68,0.00,BKN,,0.00,100.0,WeatherDisplay:10.37,2013-03-28 19:14:00,
2013-03-28 15:19:00,38.5,27.4,28.08,WNW,292,8.1,8.1,64,0.00,,,0.00,0.0,WeatherDisplay:10.37,2013-03-28 19:19:00,
2013-03-28 15:24:00,38.7,27.5,28.08,WNW,292,3.3,3.8,64,0.00,,,0.00,0.0,WeatherDisplay:10.37,2013-03-28 19:24:00,
2013-03-28 15:29:00,38.5,27.0,28.08,North,0,4.6,4.6,63,0.00,,,0.00,0.0,WeatherDisplay:10.37,2013-03-28 19:29:00,
2013-03-28 15:35:00,38.5,27.4,28.05,WNW,292,5.8,5.8,64,0.00,,,0.00,0.0,WeatherDisplay:10.37,2013-03-28 19:35:00,
2013-03-28 15:40:00,38.7,27.1,28.05,NNE,22,4.6,4.6,63,0.00,,,0.00,0.0,WeatherDisplay:10.37,2013-03-28 19:40:00,
2013-03-28 15:45:00,38.5,26.6,28.05,NW,317,6.0,10.0,62,0.00,,,0.00,0.0,WeatherDisplay:10.37,2013-03-28 19:45:00,
2013-03-28 15:50:00,38.5,26.6,28.08,NW,315,6.0,10.0,62,0.00,,,0.00,0.0,WeatherDisplay:10.37,2013-03-28 19:50:00,
2013-03-28 15:55:00,38.3,26.4,28.08,SSW,202,5.8,5.8,62,0.00,,,0.00,0.0,WeatherDisplay:10.37,2013-03-28 19:55:00,
2013-03-28 16:00:00,38.3,26.4,28.08,WNW,292,6.9,6.9,62,0.00,,,0.00,0.0,WeatherDisplay:10.37,2013-03-28 20:00:00,
2013-03-28 16:05:00,38.3,26.4,28.08,NW,315,5.0,8.0,62,0.00,,,0.00,0.0,WeatherDisplay:10.37,2013-03-28 20:05:00,
2013-03-28 16:10:00,38.1,26.2,28.08,NW,323,5.0,7.0,62,0.00,,,0.00,0.0,WeatherDisplay:10.37,2013-03-28 20:10:00,
2013-03-28 16:15:00,38.4,26.5,28.08,NW,321,5.0,9.0,62,0.00,,,0.00,0.0,WeatherDisplay:10.37,2013-03-28 20:15:00,
2013-03-28 16:20:00,38.7,26.8,28.08,WNW,292,6.9,6.9,62,0.00,,,0.00,100.0,WeatherDisplay:10.37,2013-03-28 20:20:00,
2013-03-28 16:25:00,38.8,26.5,28.08,WNW,302,8.0,13.0,61,0.00,,,0.00,0.0,WeatherDisplay:10.37,2013-03-28 20:25:00,
2013-03-28 16:30:00,39.0,26.3,28.08,NNW,338,8.1,8.1,60,0.00,,,0.00,0.0,WeatherDisplay:10.37,2013-03-28 20:30:00,
2013-03-28 16:35:00,39.2,26.1,28.08,WSW,248,6.9,6.9,59,0.00,,,0.00,0.0,WeatherDisplay:10.37,2013-03-28 20:35:00,
2013-03-28 16:40:00,39.2,26.1,28.08,NW,306,5.0,7.0,59,0.00,,,0.00,0.0,WeatherDisplay:10.37,2013-03-28 20:40:00,
2013-03-28 16:45:00,39.7,26.6,28.08,WNW,292,5.8,5.8,59,0.00,BKN,,0.00,100.0,WeatherDisplay:10.37,2013-03-28 20:45:00,
2013-03-28 16:50:00,39.9,26.7,28.08,NW,311,3.0,8.0,59,0.00,,,0.00,0.0,WeatherDisplay:10.37,2013-03-28 20:50:00,
2013-03-28 16:55:00,39.9,26.3,28.08,NW,309,5.0,7.0,58,0.00,,,0.00,0.0,WeatherDisplay:10.37,2013-03-28 20:55:00,
2013-03-28 17:00:00,39.7,25.3,28.08,WNW,303,6.0,8.0,56,0.00,,,0.00,0.0,WeatherDisplay:10.37,2013-03-28 21:00:00,
2013-03-28 17:05:00,39.6,25.1,28.08,NNW,338,8.1,8.1,56,0.00,,,0.00,0.0,WeatherDisplay:10.37,2013-03-28 21:05:00,
2013-03-28 17:10:00,39.4,25.0,28.08,WNW,292,8.7,8.7,56,0.00,,,0.00,0.0,WeatherDisplay:10.37,2013-03-28 21:10:00,
2013-03-28 17:15:00,39.4,25.0,28.08,WNW,292,6.4,6.4,56,0.00,,,0.00,0.0,WeatherDisplay:10.37,2013-03-28 21:15:00,
2013-03-28 17:20:00,39.4,25.4,28.08,NNW,338,9.2,9.2,57,0.00,,,0.00,0.0,WeatherDisplay:10.37,2013-03-28 21:20:00,
2013-03-28 17:25:00,39.6,25.6,28.08,NW,314,5.0,8.0,57,0.00,,,0.00,0.0,WeatherDisplay:10.37,2013-03-28 21:25:00,
2013-03-28 17:30:00,39.6,25.1,28.08,NW,305,6.0,9.0,56,0.00,,,0.00,0.0,WeatherDisplay:10.37,2013-03-28 21:30:00,
2013-03-28 17:35:00,39.6,25.1,28.08,NW,315,8.1,8.1,56,0.00,,,0.00,0.0,WeatherDisplay:10.37,2013-03-28 21:35:00,
2013-03-28 17:40:00,39.6,24.7,28.08,NW,314,7.0,9.0,55,0.00,,,0.00,0.0,WeatherDisplay:10.37,2013-03-28 21:40:00,
2013-03-28 17:45:00,39.6,24.7,28.08,NNW,338,9.2,9.2,55,0.00,,,0.00,0.0,WeatherDisplay:10.37,2013-03-28 21:45:00,
2013-03-28 17:50:00,39.4,24.1,28.08,WNW,292,10.4,10.4,54,0.00,,,0.00,0.0,WeatherDisplay:10.37,2013-03-28 21:50:00,
2013-03-28 17:55:00,39.4,24.5,28.08,NW,320,7.0,12.0,55,0.00,,,0.00,0.0,WeatherDisplay:10.37,2013-03-28 21:55:00,
2013-03-28 18:00:00,39.2,23.9,28.08,NNW,338,9.2,9.2,54,0.00,,,0.00,0.0,WeatherDisplay:10.37,2013-03-28 22:00:00,
2013-03-28 18:05:00,39.2,24.4,28.08,NW,315,8.1,8.1,55,0.00,,,0.00,0.0,WeatherDisplay:10.37,2013-03-28 22:05:00,
2013-03-28 18:10:00,39.0,24.6,28.08,NNE,22,6.9,6.9,56,0.00,,,0.00,0.0,WeatherDisplay:10.37,2013-03-28 22:10:00,
2013-03-28 18:15:00,38.8,24.5,28.08,WNW,292,8.1,8.1,56,0.00,,,0.00,0.0,WeatherDisplay:10.37,2013-03-28 22:15:00,
2013-03-28 18:20:00,38.7,23.9,28.08,WNW,292,9.2,9.2,55,0.00,,,0.00,0.0,WeatherDisplay:10.37,2013-03-28 22:20:00,
2013-03-28 18:25:00,38.7,23.9,28.08,WNW,292,9.2,9.2,55,0.00,,,0.00,0.0,WeatherDisplay:10.37,2013-03-28 22:25:00,
2013-03-28 18:30:00,38.5,24.1,28.08,WNW,292,6.9,6.9,56,0.00,,,0.00,0.0,WeatherDisplay:10.37,2013-03-28 22:30:00,
2013-03-28 18:35:00,38.3,24.0,28.08,NW,315,5.8,5.8,56,0.00,,,0.00,0.0,WeatherDisplay:10.37,2013-03-28 22:35:00,
2013-03-28 18:40:00,38.3,24.4,28.08,West,270,6.9,6.9,57,0.00,,,0.00,0.0,WeatherDisplay:10.37,2013-03-28 22:40:00,
2013-03-28 18:45:00,38.1,24.2,28.08,WNW,292,8.1,8.1,57,0.00,,,0.00,0.0,WeatherDisplay:10.37,2013-03-28 22:45:00,
2013-03-28 18:50:00,37.9,24.5,28.11,NNW,338,5.8,5.8,58,0.00,,,0.00,0.0,WeatherDisplay:10.37,2013-03-28 22:50:00,
2013-03-28 18:55:00,38.1,24.2,28.11,WNW,292,9.7,9.7,57,0.00,,,0.00,0.0,WeatherDisplay:10.37,2013-03-28 22:55:00,
2013-03-28 19:00:00,37.9,24.0,28.11,WNW,292,5.8,5.8,57,0.00,,,0.00,0.0,WeatherDisplay:10.37,2013-03-28 23:00:00,
2013-03-28 19:05:00,37.9,24.0,28.11,WNW,292,10.4,10.4,57,0.00,,,0.00,0.0,WeatherDisplay:10.37,2013-03-28 23:05:00,
2013-03-28 19:10:00,37.8,24.3,28.11,NNW,338,5.8,5.8,58,0.00,,,0.00,0.0,WeatherDisplay:10.37,2013-03-28 23:10:00,
2013-03-28 19:15:00,37.8,24.3,28.11,WNW,292,8.1,8.1,58,0.00,,,0.00,0.0,WeatherDisplay:10.37,2013-03-28 23:15:00,
2013-03-28 19:20:00,37.6,24.1,28.14,WNW,292,9.2,9.2,58,0.00,,,0.00,0.0,WeatherDisplay:10.37,2013-03-28 23:20:00,
2013-03-28 19:25:00,37.4,24.4,28.14,West,270,7.4,7.4,59,0.00,,,0.00,0.0,WeatherDisplay:10.37,2013-03-28 23:25:00,
2013-03-28 19:30:00,37.4,24.4,28.14,WNW,292,5.8,5.8,59,0.00,,,0.00,0.0,WeatherDisplay:10.37,2013-03-28 23:30:00,
2013-03-28 19:35:00,37.2,24.6,28.14,WNW,292,6.0,6.0,60,0.00,,,0.00,0.0,WeatherDisplay:10.37,2013-03-28 23:35:00,
2013-03-28 19:40:00,37.4,24.8,28.14,WNW,292,8.1,8.1,60,0.00,,,0.00,0.0,WeatherDisplay:10.37,2013-03-28 23:40:00,
2013-03-28 19:45:00,37.2,25.0,28.14,NNE,22,4.6,4.6,61,0.00,,,0.00,0.0,WeatherDisplay:10.37,2013-03-28 23:45:00,
2013-03-28 19:50:00,36.9,25.0,28.17,NNW,338,6.9,6.9,62,0.00,,,0.00,0.0,WeatherDisplay:10.37,2013-03-28 23:50:00,
2013-03-28 19:55:00,37.0,25.2,28.17,SW,225,7.4,7.4,62,0.00,,,0.00,0.0,WeatherDisplay:10.37,2013-03-28 23:55:00,
2013-03-28 20:00:00,37.0,25.2,28.17,WNW,292,4.9,4.9,62,0.00,,,0.00,0.0,WeatherDisplay:10.37,2013-03-29 00:00:00,
2013-03-28 20:05:00,37.0,25.6,28.14,WNW,292,8.1,8.1,63,0.00,,,0.00,0.0,WeatherDisplay:10.37,2013-03-29 00:05:00,
2013-03-28 20:10:00,36.9,25.4,28.14,NNW,338,5.8,5.8,63,0.00,,,0.00,0.0,WeatherDisplay:10.37,2013-03-29 00:10:00,
2013-03-28 20:15:00,36.7,25.3,28.14,NNW,338,3.5,3.5,63,0.00,,,0.00,0.0,WeatherDisplay:10.37,2013-03-29 00:15:00,
2013-03-28 20:20:00,36.7,25.6,28.14,NNW,338,6.9,6.9,64,0.00,,,0.00,0.0,WeatherDisplay:10.37,2013-03-29 00:20:00,
2013-03-28 20:25:00,36.7,26.0,28.14,NW,315,8.1,8.1,65,0.00,,,0.00,0.0,WeatherDisplay:10.37,2013-03-29 00:25:00,
2013-03-28 20:30:00,36.7,26.0,28.14,WNW,292,6.9,6.9,65,0.00,,,0.00,0.0,WeatherDisplay:10.37,2013-03-29 00:30:00,
2013-03-28 20:35:00,36.7,26.4,28.14,NNW,338,6.9,6.9,66,0.00,,,0.00,0.0,WeatherDisplay:10.37,2013-03-29 00:35:00,
2013-03-28 20:40:00,36.7,26.0,28.14,NNW,338,11.5,11.5,65,0.00,,,0.00,0.0,WeatherDisplay:10.37,2013-03-29 00:40:00,
2013-03-28 20:45:00,36.5,26.2,28.14,NW,315,7.4,7.4,66,0.00,,,0.00,0.0,WeatherDisplay:10.37,2013-03-29 00:45:00,
2013-03-28 20:50:00,36.5,26.2,28.14,NNW,338,5.8,5.8,66,0.00,,,0.00,0.0,WeatherDisplay:10.37,2013-03-29 00:50:00,
2013-03-28 20:55:00,36.3,26.0,28.14,WNW,292,6.9,6.9,66,0.00,,,0.00,0.0,WeatherDisplay:10.37,2013-03-29 00:55:00,
2013-03-28 21:00:00,36.5,26.2,28.14,WNW,292,9.2,9.2,66,0.00,,,0.00,0.0,WeatherDisplay:10.37,2013-03-29 01:00:00,
2013-03-28 21:05:00,36.3,26.0,28.14,WNW,292,5.9,5.9,66,0.00,,,0.00,0.0,WeatherDisplay:10.37,2013-03-29 01:05:00,
2013-03-28 21:10:00,36.3,26.0,28.14,WNW,292,12.1,12.1,66,0.00,,,0.00,0.0,WeatherDisplay:10.37,2013-03-29 01:10:00,
2013-03-28 21:15:00,36.3,26.0,28.14,WNW,292,5.8,5.8,66,0.00,,,0.00,0.0,WeatherDisplay:10.37,2013-03-29 01:15:00,
2013-03-28 21:20:00,36.3,25.7,28.17,NNW,338,8.1,8.1,65,0.00,,,0.00,0.0,WeatherDisplay:10.37,2013-03-29 01:20:00,
2013-03-28 21:25:00,36.1,25.5,28.17,WNW,292,7.4,7.4,65,0.00,,,0.00,0.0,WeatherDisplay:10.37,2013-03-29 01:25:00,
2013-03-28 21:30:00,36.1,25.5,28.17,NW,315,11.5,11.5,65,0.00,,,0.00,0.0,WeatherDisplay:10.37,2013-03-29 01:30:00,
2013-03-28 21:35:00,36.1,25.5,28.17,WNW,292,8.7,8.7,65,0.00,,,0.00,0.0,WeatherDisplay:10.37,2013-03-29 01:35:00,
2013-03-28 21:40:00,36.1,25.1,28.17,WNW,292,9.2,9.2,64,0.00,,,0.00,0.0,WeatherDisplay:10.37,2013-03-29 01:40:00,
2013-03-28 21:45:00,36.1,25.5,28.17,WNW,292,6.9,6.9,65,0.00,,,0.00,0.0,WeatherDisplay:10.37,2013-03-29 01:45:00,
2013-03-28 21:50:00,36.1,25.1,28.17,WNW,292,8.1,8.1,64,0.00,,,0.00,0.0,WeatherDisplay:10.37,2013-03-29 01:50:00,
2013-03-28 21:55:00,36.0,25.3,28.17,WNW,292,13.2,13.2,65,0.00,,,0.00,0.0,WeatherDisplay:10.37,2013-03-29 01:55:00,
2013-03-28 22:00:00,36.1,25.1,28.17,WNW,292,6.9,6.9,64,0.00,,,0.00,0.0,WeatherDisplay:10.37,2013-03-29 02:00:00,
2013-03-28 22:05:00,36.0,25.0,28.17,WNW,292,6.9,6.9,64,0.00,,,0.00,0.0,WeatherDisplay:10.37,2013-03-29 02:05:00,
2013-03-28 22:10:00,36.0,25.0,28.17,NW,315,9.2,9.2,64,0.00,,,0.00,0.0,WeatherDisplay:10.37,2013-03-29 02:10:00,
2013-03-28 22:15:00,35.8,24.8,28.20,WSW,248,8.1,8.1,64,0.00,,,0.00,0.0,WeatherDisplay:10.37,2013-03-29 02:15:00,
2013-03-28 22:20:00,35.8,24.8,28.20,NNW,338,5.8,5.8,64,0.00,,,0.00,0.0,WeatherDisplay:10.37,2013-03-29 02:20:00,
2013-03-28 22:25:00,35.8,25.2,28.20,WNW,292,6.9,6.9,65,0.00,,,0.00,0.0,WeatherDisplay:10.37,2013-03-29 02:25:00,
2013-03-28 22:31:00,35.6,25.0,28.20,NNW,338,10.4,10.4,65,0.00,,,0.00,0.0,WeatherDisplay:10.37,2013-03-29 02:31:00,
2013-03-28 22:36:00,35.6,25.0,28.20,NNW,338,5.8,5.8,65,0.00,,,0.00,0.0,WeatherDisplay:10.37,2013-03-29 02:36:00,
2013-03-28 22:41:00,35.6,25.0,28.20,WNW,292,5.8,5.8,65,0.00,,,0.00,0.0,WeatherDisplay:10.37,2013-03-29 02:41:00,
2013-03-28 22:46:00,35.4,25.2,28.20,WNW,292,5.8,5.8,66,0.00,,,0.00,0.0,WeatherDisplay:10.37,2013-03-29 02:46:00,
2013-03-28 22:51:00,35.6,24.6,28.20,NNW,338,10.4,10.4,64,0.00,,,0.00,0.0,WeatherDisplay:10.37,2013-03-29 02:51:00,
2013-03-28 22:56:00,35.4,24.4,28.20,West,270,6.9,6.9,64,0.00,,,0.00,0.0,WeatherDisplay:10.37,2013-03-29 02:56:00,
2013-03-28 23:01:00,35.4,24.8,28.20,WNW,292,4.6,4.6,65,0.00,,,0.00,0.0,WeatherDisplay:10.37,2013-03-29 03:01:00,
2013-03-28 23:06:00,35.4,24.8,28.20,WNW,292,6.0,6.0,65,0.00,,,0.00,0.0,WeatherDisplay:10.37,2013-03-29 03:06:00,
2013-03-28 23:11:00,35.2,24.6,28.20,NW,315,8.1,8.1,65,0.00,,,0.00,0.0,WeatherDisplay:10.37,2013-03-29 03:11:00,
2013-03-28 23:16:00,35.2,24.6,28.20,WNW,292,4.6,4.6,65,0.00,,,0.00,0.0,WeatherDisplay:10.37,2013-03-29 03:16:00,
2013-03-28 23:21:00,35.1,24.8,28.20,WNW,292,5.8,5.8,66,0.00,,,0.00,0.0,WeatherDisplay:10.37,2013-03-29 03:21:00,
2013-03-28 23:26:00,35.1,24.8,28.20,NNW,338,4.6,4.6,66,0.00,,,0.00,0.0,WeatherDisplay:10.37,2013-03-29 03:26:00,
2013-03-28 23:31:00,35.1,24.5,28.17,WNW,292,5.8,5.8,65,0.00,,,0.00,0.0,WeatherDisplay:10.37,2013-03-29 03:31:00,
2013-03-28 23:36:00,35.1,24.8,28.17,WNW,292,4.6,4.6,66,0.00,,,0.00,0.0,WeatherDisplay:10.37,2013-03-29 03:36:00,
2013-03-28 23:41:00,34.9,24.7,28.17,WNW,292,4.6,4.6,66,0.00,,,0.00,0.0,WeatherDisplay:10.37,2013-03-29 03:41:00,
2013-03-28 23:46:00,34.9,24.7,28.17,NNW,338,3.5,3.5,66,0.00,,,0.00,0.0,WeatherDisplay:10.37,2013-03-29 03:46:00,
2013-03-28 23:51:00,34.9,24.7,28.17,NNW,338,5.8,5.8,66,0.00,,,0.00,0.0,WeatherDisplay:10.37,2013-03-29 03:51:00,
2013-03-28 23:56:00,34.9,24.7,28.17,WNW,292,3.5,3.5,66,0.00,,,0.00,0.0,WeatherDisplay:10.37,2013-03-29 03:56:00,